sensor_id;sensor_type;location;lat;lon;timestamp;pressure;altitude;pressure_sealevel;temperature;humidity
33404;BME280;19751;40.274;18.268;2023-02-15T00:01:41;102273.66;;;8.14;100.00
33404;BME280;19751;40.274;18.268;2023-02-15T00:04:07;102281.72;;;8.23;100.00
33404;BME280;19751;40.274;18.268;2023-02-15T00:06:33;102275.69;;;8.31;100.00
33404;BME280;19751;40.274;18.268;2023-02-15T00:08:59;102273.19;;;8.39;100.00
33404;BME280;19751;40.274;18.268;2023-02-15T00:11:25;102283.09;;;8.39;100.00
33404;BME280;19751;40.274;18.268;2023-02-15T00:14:20;102277.94;;;8.36;100.00
33404;BME280;19751;40.274;18.268;2023-02-15T00:16:47;102274.44;;;8.35;100.00
33404;BME280;19751;40.274;18.268;2023-02-15T00:19:15;102274.84;;;8.31;100.00
33404;BME280;19751;40.274;18.268;2023-02-15T00:21:41;102278.63;;;8.28;100.00
33404;BME280;19751;40.274;18.268;2023-02-15T00:24:08;102278.63;;;8.28;100.00
33404;BME280;19751;40.274;18.268;2023-02-15T00:26:35;102273.41;;;8.27;100.00
33404;BME280;19751;40.274;18.268;2023-02-15T00:29:00;102272.97;;;8.21;100.00
33404;BME280;19751;40.274;18.268;2023-02-15T00:31:27;102272.41;;;8.18;100.00
33404;BME280;19751;40.274;18.268;2023-02-15T00:33:53;102280.44;;;8.18;100.00
33404;BME280;19751;40.274;18.268;2023-02-15T00:36:19;102274.34;;;8.16;100.00
33404;BME280;19751;40.274;18.268;2023-02-15T00:38:44;102266.59;;;8.13;100.00
33404;BME280;19751;40.274;18.268;2023-02-15T00:41:10;102262.63;;;8.17;100.00
33404;BME280;19751;40.274;18.268;2023-02-15T00:43:36;102263.63;;;8.16;100.00
33404;BME280;19751;40.274;18.268;2023-02-15T00:46:03;102264.03;;;8.11;100.00
33404;BME280;19751;40.274;18.268;2023-02-15T00:48:29;102263.34;;;8.09;100.00
33404;BME280;19751;40.274;18.268;2023-02-15T00:50:57;102268.81;;;8.08;100.00
33404;BME280;19751;40.274;18.268;2023-02-15T00:53:24;102262.75;;;8.06;100.00
33404;BME280;19751;40.274;18.268;2023-02-15T00:55:50;102264.84;;;8.02;100.00
33404;BME280;19751;40.274;18.268;2023-02-15T00:58:16;102266.25;;;7.96;100.00
33404;BME280;19751;40.274;18.268;2023-02-15T01:00:43;102259.47;;;7.92;100.00
33404;BME280;19751;40.274;18.268;2023-02-15T01:03:10;102265.78;;;7.91;100.00
33404;BME280;19751;40.274;18.268;2023-02-15T01:05:36;102262.16;;;7.92;100.00
33404;BME280;19751;40.274;18.268;2023-02-15T01:08:02;102264.69;;;7.94;100.00
33404;BME280;19751;40.274;18.268;2023-02-15T01:10:28;102266.38;;;7.95;100.00
33404;BME280;19751;40.274;18.268;2023-02-15T01:12:54;102267.78;;;7.89;100.00
33404;BME280;19751;40.274;18.268;2023-02-15T01:15:20;102260.13;;;7.85;100.00
33404;BME280;19751;40.274;18.268;2023-02-15T01:17:46;102259.53;;;7.81;100.00
33404;BME280;19751;40.274;18.268;2023-02-15T01:20:22;102247.22;;;7.79;100.00
33404;BME280;19751;40.274;18.268;2023-02-15T01:22:48;102247.66;;;7.74;100.00
33404;BME280;19751;40.274;18.268;2023-02-15T01:25:18;102247.78;;;7.72;100.00
33404;BME280;19751;40.274;18.268;2023-02-15T01:27:45;102248.91;;;7.70;100.00
33404;BME280;19751;40.274;18.268;2023-02-15T01:30:11;102242.94;;;7.66;100.00
33404;BME280;19751;40.274;18.268;2023-02-15T01:32:37;102248.44;;;7.65;100.00
33404;BME280;19751;40.274;18.268;2023-02-15T01:35:03;102240.41;;;7.65;100.00
33404;BME280;19751;40.274;18.268;2023-02-15T01:37:30;102235.47;;;7.70;100.00
33404;BME280;19751;40.274;18.268;2023-02-15T01:39:56;102238.91;;;7.72;100.00
33404;BME280;19751;40.274;18.268;2023-02-15T01:42:26;102235.66;;;7.78;100.00
33404;BME280;19751;40.274;18.268;2023-02-15T01:44:55;102236.66;;;7.77;100.00
33404;BME280;19751;40.274;18.268;2023-02-15T01:50:30;102235.75;;;7.67;100.00
33404;BME280;19751;40.274;18.268;2023-02-15T01:55:34;102229.34;;;7.58;100.00
33404;BME280;19751;40.274;18.268;2023-02-15T01:58:02;102244.84;;;7.55;100.00
33404;BME280;19751;40.274;18.268;2023-02-15T02:00:28;102234.53;;;7.50;100.00
33404;BME280;19751;40.274;18.268;2023-02-15T02:02:55;102246.25;;;7.49;100.00
33404;BME280;19751;40.274;18.268;2023-02-15T02:05:22;102234.81;;;7.47;100.00
33404;BME280;19751;40.274;18.268;2023-02-15T02:07:50;102236.31;;;7.40;100.00
33404;BME280;19751;40.274;18.268;2023-02-15T02:10:20;102227.94;;;7.33;100.00
33404;BME280;19751;40.274;18.268;2023-02-15T02:12:47;102241.53;;;7.20;100.00
33404;BME280;19751;40.274;18.268;2023-02-15T02:15:15;102233.59;;;7.09;100.00
33404;BME280;19751;40.274;18.268;2023-02-15T02:20:39;102233.50;;;7.00;100.00
33404;BME280;19751;40.274;18.268;2023-02-15T02:35:08;102233.00;;;7.06;100.00
33404;BME280;19751;40.274;18.268;2023-02-15T02:40:56;102241.34;;;7.12;100.00
33404;BME280;19751;40.274;18.268;2023-02-15T02:43:37;102240.25;;;7.15;100.00
33404;BME280;19751;40.274;18.268;2023-02-15T02:49:43;102237.38;;;7.28;100.00
33404;BME280;19751;40.274;18.268;2023-02-15T02:52:43;102250.56;;;7.40;100.00
33404;BME280;19751;40.274;18.268;2023-02-15T02:55:35;102243.97;;;7.44;100.00
33404;BME280;19751;40.274;18.268;2023-02-15T02:58:37;102254.03;;;7.52;100.00
33404;BME280;19751;40.274;18.268;2023-02-15T03:01:12;102246.56;;;7.56;100.00
33404;BME280;19751;40.274;18.268;2023-02-15T03:03:50;102240.03;;;7.48;100.00
33404;BME280;19751;40.274;18.268;2023-02-15T03:06:28;102243.25;;;7.42;100.00
33404;BME280;19751;40.274;18.268;2023-02-15T03:09:01;102250.31;;;7.43;100.00
33404;BME280;19751;40.274;18.268;2023-02-15T03:11:29;102249.88;;;7.38;100.00
33404;BME280;19751;40.274;18.268;2023-02-15T03:13:55;102245.94;;;7.42;100.00
33404;BME280;19751;40.274;18.268;2023-02-15T03:16:21;102247.75;;;7.42;100.00
33404;BME280;19751;40.274;18.268;2023-02-15T03:21:35;102252.66;;;7.37;100.00
33404;BME280;19751;40.274;18.268;2023-02-15T03:24:09;102251.81;;;7.36;100.00
33404;BME280;19751;40.274;18.268;2023-02-15T03:26:37;102253.50;;;7.37;100.00
33404;BME280;19751;40.274;18.268;2023-02-15T03:29:05;102254.50;;;7.36;100.00
33404;BME280;19751;40.274;18.268;2023-02-15T03:31:34;102260.84;;;7.35;100.00
33404;BME280;19751;40.274;18.268;2023-02-15T03:34:04;102258.88;;;7.37;100.00
33404;BME280;19751;40.274;18.268;2023-02-15T03:42:16;102258.03;;;7.37;100.00
33404;BME280;19751;40.274;18.268;2023-02-15T03:45:08;102259.47;;;7.41;100.00
33404;BME280;19751;40.274;18.268;2023-02-15T03:47:44;102250.44;;;7.42;100.00
33404;BME280;19751;40.274;18.268;2023-02-15T03:50:18;102254.69;;;7.44;100.00
33404;BME280;19751;40.274;18.268;2023-02-15T03:53:06;102257.91;;;7.38;100.00
33404;BME280;19751;40.274;18.268;2023-02-15T03:55:36;102264.81;;;7.41;100.00
33404;BME280;19751;40.274;18.268;2023-02-15T03:58:03;102254.09;;;7.41;100.00
33404;BME280;19751;40.274;18.268;2023-02-15T04:01:17;102258.09;;;7.46;100.00
33404;BME280;19751;40.274;18.268;2023-02-15T04:06:56;102255.97;;;7.50;100.00
33404;BME280;19751;40.274;18.268;2023-02-15T04:09:21;102249.25;;;7.56;100.00
33404;BME280;19751;40.274;18.268;2023-02-15T04:12:06;102249.69;;;7.61;100.00
33404;BME280;19751;40.274;18.268;2023-02-15T04:14:31;102244.47;;;7.59;100.00
33404;BME280;19751;40.274;18.268;2023-02-15T04:17:16;102239.81;;;7.61;100.00
33404;BME280;19751;40.274;18.268;2023-02-15T04:19:41;102246.19;;;7.60;100.00
33404;BME280;19751;40.274;18.268;2023-02-15T04:22:25;102246.03;;;7.62;100.00
33404;BME280;19751;40.274;18.268;2023-02-15T04:25:09;102247.28;;;7.58;100.00
33404;BME280;19751;40.274;18.268;2023-02-15T04:27:37;102241.47;;;7.53;100.00
33404;BME280;19751;40.274;18.268;2023-02-15T04:30:03;102246.69;;;7.54;100.00
33404;BME280;19751;40.274;18.268;2023-02-15T04:32:29;102244.16;;;7.53;100.00
33404;BME280;19751;40.274;18.268;2023-02-15T04:34:54;102251.66;;;7.59;100.00
33404;BME280;19751;40.274;18.268;2023-02-15T04:37:20;102252.53;;;7.59;100.00
33404;BME280;19751;40.274;18.268;2023-02-15T04:39:45;102250.69;;;7.60;100.00
33404;BME280;19751;40.274;18.268;2023-02-15T04:42:11;102252.78;;;7.56;100.00
33404;BME280;19751;40.274;18.268;2023-02-15T04:44:37;102253.63;;;7.57;100.00
33404;BME280;19751;40.274;18.268;2023-02-15T04:47:02;102260.09;;;7.54;100.00
33404;BME280;19751;40.274;18.268;2023-02-15T04:49:28;102264.63;;;7.54;100.00
33404;BME280;19751;40.274;18.268;2023-02-15T04:51:54;102270.81;;;7.54;100.00
33404;BME280;19751;40.274;18.268;2023-02-15T04:54:19;102279.72;;;7.55;100.00
33404;BME280;19751;40.274;18.268;2023-02-15T04:56:45;102271.66;;;7.55;100.00
33404;BME280;19751;40.274;18.268;2023-02-15T04:59:10;102273.25;;;7.57;100.00
33404;BME280;19751;40.274;18.268;2023-02-15T05:01:36;102280.59;;;7.55;100.00
33404;BME280;19751;40.274;18.268;2023-02-15T05:04:02;102281.69;;;7.53;100.00
33404;BME280;19751;40.274;18.268;2023-02-15T05:06:28;102272.94;;;7.51;100.00
33404;BME280;19751;40.274;18.268;2023-02-15T05:08:53;102285.47;;;7.50;100.00
33404;BME280;19751;40.274;18.268;2023-02-15T05:11:19;102284.50;;;7.51;100.00
33404;BME280;19751;40.274;18.268;2023-02-15T05:13:45;102281.25;;;7.47;100.00
33404;BME280;19751;40.274;18.268;2023-02-15T05:16:10;102295.34;;;7.50;100.00
33404;BME280;19751;40.274;18.268;2023-02-15T05:18:36;102290.59;;;7.53;100.00
33404;BME280;19751;40.274;18.268;2023-02-15T05:21:02;102294.56;;;7.59;100.00
33404;BME280;19751;40.274;18.268;2023-02-15T05:23:27;102291.63;;;7.62;100.00
33404;BME280;19751;40.274;18.268;2023-02-15T05:25:53;102289.94;;;7.61;100.00
33404;BME280;19751;40.274;18.268;2023-02-15T05:28:38;102299.41;;;7.65;100.00
33404;BME280;19751;40.274;18.268;2023-02-15T05:31:08;102303.34;;;7.61;100.00
33404;BME280;19751;40.274;18.268;2023-02-15T05:33:35;102300.31;;;7.54;100.00
33404;BME280;19751;40.274;18.268;2023-02-15T05:36:01;102303.28;;;7.51;100.00
33404;BME280;19751;40.274;18.268;2023-02-15T05:38:27;102310.19;;;7.54;100.00
33404;BME280;19751;40.274;18.268;2023-02-15T05:40:53;102311.78;;;7.56;100.00
33404;BME280;19751;40.274;18.268;2023-02-15T05:43:19;102310.09;;;7.55;100.00
33404;BME280;19751;40.274;18.268;2023-02-15T05:45:52;102314.31;;;7.58;100.00
33404;BME280;19751;40.274;18.268;2023-02-15T05:48:20;102312.38;;;7.60;100.00
33404;BME280;19751;40.274;18.268;2023-02-15T05:50:46;102321.25;;;7.60;100.00
33404;BME280;19751;40.274;18.268;2023-02-15T05:53:12;102316.28;;;7.56;100.00
33404;BME280;19751;40.274;18.268;2023-02-15T05:55:39;102321.66;;;7.56;100.00
33404;BME280;19751;40.274;18.268;2023-02-15T05:58:05;102318.97;;;7.56;100.00
33404;BME280;19751;40.274;18.268;2023-02-15T06:00:30;102322.06;;;7.51;100.00
33404;BME280;19751;40.274;18.268;2023-02-15T06:02:56;102321.22;;;7.51;100.00
33404;BME280;19751;40.274;18.268;2023-02-15T06:05:21;102321.78;;;7.54;100.00
33404;BME280;19751;40.274;18.268;2023-02-15T06:07:47;102328.72;;;7.57;100.00
33404;BME280;19751;40.274;18.268;2023-02-15T06:10:12;102333.22;;;7.56;100.00
33404;BME280;19751;40.274;18.268;2023-02-15T06:12:38;102333.94;;;7.58;100.00
33404;BME280;19751;40.274;18.268;2023-02-15T06:15:04;102341.72;;;7.61;100.00
33404;BME280;19751;40.274;18.268;2023-02-15T06:17:30;102339.50;;;7.66;100.00
33404;BME280;19751;40.274;18.268;2023-02-15T06:19:55;102339.38;;;7.68;100.00
33404;BME280;19751;40.274;18.268;2023-02-15T06:22:21;102340.34;;;7.67;100.00
33404;BME280;19751;40.274;18.268;2023-02-15T06:24:47;102336.81;;;7.66;100.00
33404;BME280;19751;40.274;18.268;2023-02-15T06:27:12;102344.47;;;7.71;100.00
33404;BME280;19751;40.274;18.268;2023-02-15T06:29:38;102347.72;;;7.75;100.00
33404;BME280;19751;40.274;18.268;2023-02-15T06:32:04;102350.00;;;7.79;100.00
33404;BME280;19751;40.274;18.268;2023-02-15T06:34:30;102346.81;;;7.85;100.00
33404;BME280;19751;40.274;18.268;2023-02-15T06:36:55;102351.66;;;7.91;100.00
33404;BME280;19751;40.274;18.268;2023-02-15T06:39:21;102355.16;;;7.92;100.00
33404;BME280;19751;40.274;18.268;2023-02-15T06:41:46;102356.59;;;7.96;100.00
33404;BME280;19751;40.274;18.268;2023-02-15T06:44:12;102354.06;;;7.94;100.00
33404;BME280;19751;40.274;18.268;2023-02-15T06:46:38;102360.44;;;7.93;100.00
33404;BME280;19751;40.274;18.268;2023-02-15T06:49:03;102353.94;;;7.96;100.00
33404;BME280;19751;40.274;18.268;2023-02-15T06:51:29;102351.72;;;8.01;100.00
33404;BME280;19751;40.274;18.268;2023-02-15T06:53:55;102358.13;;;8.10;100.00
33404;BME280;19751;40.274;18.268;2023-02-15T06:56:21;102358.13;;;8.10;100.00
33404;BME280;19751;40.274;18.268;2023-02-15T06:58:46;102361.50;;;8.12;100.00
33404;BME280;19751;40.274;18.268;2023-02-15T07:01:14;102358.28;;;8.18;100.00
33404;BME280;19751;40.274;18.268;2023-02-15T07:03:40;102358.72;;;8.23;100.00
33404;BME280;19751;40.274;18.268;2023-02-15T07:06:06;102356.50;;;8.28;100.00
33404;BME280;19751;40.274;18.268;2023-02-15T07:08:34;102355.50;;;8.29;100.00
33404;BME280;19751;40.274;18.268;2023-02-15T07:11:00;102351.69;;;8.32;100.00
33404;BME280;19751;40.274;18.268;2023-02-15T07:14:01;102362.50;;;8.41;100.00
33404;BME280;19751;40.274;18.268;2023-02-15T07:16:27;102360.97;;;8.49;100.00
33404;BME280;19751;40.274;18.268;2023-02-15T07:18:53;102348.84;;;8.54;100.00
33404;BME280;19751;40.274;18.268;2023-02-15T07:21:18;102353.41;;;8.63;100.00
33404;BME280;19751;40.274;18.268;2023-02-15T07:23:44;102362.22;;;8.75;100.00
33404;BME280;19751;40.274;18.268;2023-02-15T07:26:09;102364.75;;;8.86;100.00
33404;BME280;19751;40.274;18.268;2023-02-15T07:28:35;102361.38;;;8.94;100.00
33404;BME280;19751;40.274;18.268;2023-02-15T07:31:02;102359.97;;;9.00;100.00
33404;BME280;19751;40.274;18.268;2023-02-15T07:33:30;102356.00;;;9.04;100.00
33404;BME280;19751;40.274;18.268;2023-02-15T07:35:58;102363.38;;;9.11;100.00
33404;BME280;19751;40.274;18.268;2023-02-15T07:38:25;102362.41;;;9.22;100.00
33404;BME280;19751;40.274;18.268;2023-02-15T07:40:56;102357.16;;;9.30;100.00
33404;BME280;19751;40.274;18.268;2023-02-15T07:43:22;102361.00;;;9.37;100.00
33404;BME280;19751;40.274;18.268;2023-02-15T07:45:48;102360.97;;;9.47;100.00
33404;BME280;19751;40.274;18.268;2023-02-15T07:48:13;102362.41;;;9.51;100.00
33404;BME280;19751;40.274;18.268;2023-02-15T07:50:39;102360.97;;;9.57;100.00
33404;BME280;19751;40.274;18.268;2023-02-15T07:53:04;102366.63;;;9.63;100.00
33404;BME280;19751;40.274;18.268;2023-02-15T07:55:30;102380.50;;;9.68;100.00
33404;BME280;19751;40.274;18.268;2023-02-15T07:57:56;102377.25;;;9.75;100.00
33404;BME280;19751;40.274;18.268;2023-02-15T08:00:22;102378.50;;;9.80;100.00
33404;BME280;19751;40.274;18.268;2023-02-15T08:02:59;102381.44;;;9.87;100.00
33404;BME280;19751;40.274;18.268;2023-02-15T08:05:43;102377.34;;;9.92;100.00
33404;BME280;19751;40.274;18.268;2023-02-15T08:08:10;102385.81;;;9.98;100.00
33404;BME280;19751;40.274;18.268;2023-02-15T08:13:50;102390.44;;;10.15;100.00
33404;BME280;19751;40.274;18.268;2023-02-15T08:16:37;102388.31;;;10.18;100.00
33404;BME280;19751;40.274;18.268;2023-02-15T08:19:20;102383.50;;;10.22;100.00
33404;BME280;19751;40.274;18.268;2023-02-15T08:21:57;102384.63;;;10.29;100.00
33404;BME280;19751;40.274;18.268;2023-02-15T08:24:28;102390.97;;;10.38;100.00
33404;BME280;19751;40.274;18.268;2023-02-15T08:26:54;102391.22;;;10.44;100.00
33404;BME280;19751;40.274;18.268;2023-02-15T08:29:26;102388.06;;;10.49;100.00
33404;BME280;19751;40.274;18.268;2023-02-15T08:31:57;102389.63;;;10.52;100.00
33404;BME280;19751;40.274;18.268;2023-02-15T08:34:31;102384.81;;;10.55;100.00
33404;BME280;19751;40.274;18.268;2023-02-15T08:36:57;102393.56;;;10.57;100.00
33404;BME280;19751;40.274;18.268;2023-02-15T08:39:23;102389.75;;;10.60;100.00
33404;BME280;19751;40.274;18.268;2023-02-15T08:41:48;102387.75;;;10.62;100.00
33404;BME280;19751;40.274;18.268;2023-02-15T08:44:16;102389.84;;;10.68;100.00
33404;BME280;19751;40.274;18.268;2023-02-15T08:46:44;102385.69;;;10.74;100.00
33404;BME280;19751;40.274;18.268;2023-02-15T08:49:12;102377.84;;;10.80;100.00
33404;BME280;19751;40.274;18.268;2023-02-15T08:51:38;102381.22;;;10.82;100.00
33404;BME280;19751;40.274;18.268;2023-02-15T08:54:07;102387.72;;;10.89;100.00
33404;BME280;19751;40.274;18.268;2023-02-15T08:56:36;102380.91;;;10.95;100.00
33404;BME280;19751;40.274;18.268;2023-02-15T08:59:03;102387.34;;;11.02;100.00
33404;BME280;19751;40.274;18.268;2023-02-15T09:01:31;102389.28;;;11.10;100.00
33404;BME280;19751;40.274;18.268;2023-02-15T09:04:03;102392.06;;;11.18;100.00
33404;BME280;19751;40.274;18.268;2023-02-15T09:06:29;102392.00;;;11.28;100.00
33404;BME280;19751;40.274;18.268;2023-02-15T09:08:55;102394.09;;;11.34;100.00
33404;BME280;19751;40.274;18.268;2023-02-15T09:11:24;102397.63;;;11.34;100.00
33404;BME280;19751;40.274;18.268;2023-02-15T09:13:57;102398.94;;;11.30;100.00
33404;BME280;19751;40.274;18.268;2023-02-15T09:16:26;102404.63;;;11.27;100.00
33404;BME280;19751;40.274;18.268;2023-02-15T09:18:52;102401.81;;;11.29;100.00
33404;BME280;19751;40.274;18.268;2023-02-15T09:21:23;102396.78;;;11.34;100.00
33404;BME280;19751;40.274;18.268;2023-02-15T09:23:51;102398.19;;;11.38;100.00
33404;BME280;19751;40.274;18.268;2023-02-15T09:26:19;102403.97;;;11.43;100.00
33404;BME280;19751;40.274;18.268;2023-02-15T09:28:46;102397.41;;;11.45;100.00
33404;BME280;19751;40.274;18.268;2023-02-15T09:31:20;102415.59;;;11.43;100.00
33404;BME280;19751;40.274;18.268;2023-02-15T09:33:47;102416.06;;;11.39;100.00
33404;BME280;19751;40.274;18.268;2023-02-15T09:36:34;102425.31;;;11.36;100.00
33404;BME280;19751;40.274;18.268;2023-02-15T10:29:05;102419.78;;;11.82;75.51
33404;BME280;19751;40.274;18.268;2023-02-15T10:31:50;102427.91;;;11.82;70.03
33404;BME280;19751;40.274;18.268;2023-02-15T10:37:16;102428.47;;;11.85;72.95
33404;BME280;19751;40.274;18.268;2023-02-15T11:02:27;102423.69;;;11.79;84.83
33404;BME280;19751;40.274;18.268;2023-02-15T11:08:04;102425.53;;;11.79;84.06
33404;BME280;19751;40.274;18.268;2023-02-15T11:10:51;102424.34;;;11.81;82.75
33404;BME280;19751;40.274;18.268;2023-02-15T11:13:19;102423.38;;;11.82;82.50
33404;BME280;19751;40.274;18.268;2023-02-15T11:15:53;102427.91;;;11.82;81.64
33404;BME280;19751;40.274;18.268;2023-02-15T11:18:34;102422.84;;;11.79;78.40
33404;BME280;19751;40.274;18.268;2023-02-15T11:21:26;102433.47;;;11.80;78.38
33404;BME280;19751;40.274;18.268;2023-02-15T11:23:50;102416.59;;;11.78;74.94
33404;BME280;19751;40.274;18.268;2023-02-15T11:26:36;102420.66;;;11.82;74.39
33404;BME280;19751;40.274;18.268;2023-02-15T11:29:27;102427.06;;;11.81;73.00
33404;BME280;19751;40.274;18.268;2023-02-15T11:32:31;102422.38;;;11.83;72.88
33404;BME280;19751;40.274;18.268;2023-02-15T11:37:48;102423.38;;;11.82;71.22
33404;BME280;19751;40.274;18.268;2023-02-15T11:42:45;102412.88;;;11.79;68.63
33404;BME280;19751;40.274;18.268;2023-02-15T11:47:46;102424.28;;;11.73;65.66
33404;BME280;19751;40.274;18.268;2023-02-15T11:50:16;102422.59;;;11.72;63.09
33404;BME280;19751;40.274;18.268;2023-02-15T11:52:43;102418.03;;;11.73;63.20
33404;BME280;19751;40.274;18.268;2023-02-15T11:55:14;102420.28;;;11.77;63.60
33404;BME280;19751;40.274;18.268;2023-02-15T11:57:45;102416.25;;;11.81;62.47
33404;BME280;19751;40.274;18.268;2023-02-15T12:00:25;102403.50;;;11.83;61.42
33404;BME280;19751;40.274;18.268;2023-02-15T12:02:54;102414.97;;;11.85;60.71
33404;BME280;19751;40.274;18.268;2023-02-15T12:05:24;102426.47;;;11.87;61.21
33404;BME280;19751;40.274;18.268;2023-02-15T12:07:55;102416.69;;;11.86;61.44
33404;BME280;19751;40.274;18.268;2023-02-15T12:10:26;102416.81;;;11.85;61.21
33404;BME280;19751;40.274;18.268;2023-02-15T12:13:19;102411.59;;;11.83;62.14
33404;BME280;19751;40.274;18.268;2023-02-15T12:15:47;102412.28;;;11.85;62.59
33404;BME280;19751;40.274;18.268;2023-02-15T12:18:36;102417.34;;;11.88;63.69
33404;BME280;19751;40.274;18.268;2023-02-15T12:21:12;102402.84;;;11.89;64.61
33404;BME280;19751;40.274;18.268;2023-02-15T12:23:46;102399.16;;;11.90;65.65
33404;BME280;19751;40.274;18.268;2023-02-15T12:26:14;102388.19;;;11.92;66.08
33404;BME280;19751;40.274;18.268;2023-02-15T12:28:44;102388.03;;;11.93;66.68
33404;BME280;19751;40.274;18.268;2023-02-15T12:31:38;102390.72;;;11.93;67.65
33404;BME280;19751;40.274;18.268;2023-02-15T12:34:16;102389.88;;;11.93;68.26
33404;BME280;19751;40.274;18.268;2023-02-15T12:36:49;102398.53;;;11.97;69.07
33404;BME280;19751;40.274;18.268;2023-02-15T12:42:15;102400.59;;;12.03;69.67
33404;BME280;19751;40.274;18.268;2023-02-15T12:44:54;102397.91;;;12.03;69.78
33404;BME280;19751;40.274;18.268;2023-02-15T12:47:20;102399.72;;;12.02;69.66
33404;BME280;19751;40.274;18.268;2023-02-15T12:50:11;102403.31;;;12.03;70.13
33404;BME280;19751;40.274;18.268;2023-02-15T12:52:44;102399.72;;;12.02;70.07
33404;BME280;19751;40.274;18.268;2023-02-15T12:55:19;102403.31;;;12.03;69.80
33404;BME280;19751;40.274;18.268;2023-02-15T12:57:45;102398.75;;;12.03;69.32
33404;BME280;19751;40.274;18.268;2023-02-15T13:02:49;102402.44;;;12.02;67.24
33404;BME280;19751;40.274;18.268;2023-02-15T13:05:37;102388.78;;;12.04;67.06
33404;BME280;19751;40.274;18.268;2023-02-15T13:08:13;102389.16;;;12.09;67.56
33404;BME280;19751;40.274;18.268;2023-02-15T13:11:09;102395.94;;;12.13;67.31
33404;BME280;19751;40.274;18.268;2023-02-15T13:16:21;102399.47;;;12.13;67.56
33404;BME280;19751;40.274;18.268;2023-02-15T13:18:51;102396.28;;;12.18;67.41
33404;BME280;19751;40.274;18.268;2023-02-15T13:21:24;102387.56;;;12.24;67.52
33404;BME280;19751;40.274;18.268;2023-02-15T13:23:58;102381.16;;;12.25;65.88
33404;BME280;19751;40.274;18.268;2023-02-15T13:26:27;102387.56;;;12.24;65.04
33404;BME280;19751;40.274;18.268;2023-02-15T13:28:59;102390.94;;;12.26;64.04
33404;BME280;19751;40.274;18.268;2023-02-15T13:31:28;102398.03;;;12.27;64.94
33404;BME280;19751;40.274;18.268;2023-02-15T13:34:18;102392.16;;;12.32;65.22
33404;BME280;19751;40.274;18.268;2023-02-15T13:36:54;102398.06;;;12.35;65.21
33404;BME280;19751;40.274;18.268;2023-02-15T13:39:40;102392.34;;;12.38;65.13
33404;BME280;19751;40.274;18.268;2023-02-15T13:42:22;102395.09;;;12.47;65.41
33404;BME280;19751;40.274;18.268;2023-02-15T13:53:18;102398.13;;;12.78;65.10
33404;BME280;19751;40.274;18.268;2023-02-15T13:55:55;102395.91;;;12.81;64.23
33404;BME280;19751;40.274;18.268;2023-02-15T14:01:34;102385.31;;;12.96;62.65
33404;BME280;19751;40.274;18.268;2023-02-15T14:12:19;102382.19;;;13.33;59.33
33404;BME280;19751;40.274;18.268;2023-02-15T14:20:07;102384.41;;;13.71;58.87
33404;BME280;19751;40.274;18.268;2023-02-15T14:22:48;102383.56;;;13.78;58.33
33404;BME280;19751;40.274;18.268;2023-02-15T14:28:02;102384.41;;;13.87;56.83
33404;BME280;19751;40.274;18.268;2023-02-15T14:30:36;102385.56;;;13.84;56.13
33404;BME280;19751;40.274;18.268;2023-02-15T14:35:34;102384.91;;;13.74;56.09
33404;BME280;19751;40.274;18.268;2023-02-15T14:38:15;102396.25;;;13.78;56.27
33404;BME280;19751;40.274;18.268;2023-02-15T14:40:51;102387.97;;;13.79;57.04
33404;BME280;19751;40.274;18.268;2023-02-15T14:43:34;102391.00;;;13.84;57.53
33404;BME280;19751;40.274;18.268;2023-02-15T14:48:46;102391.88;;;13.68;57.20
33404;BME280;19751;40.274;18.268;2023-02-15T14:51:53;102411.47;;;13.54;57.76
33404;BME280;19751;40.274;18.268;2023-02-15T15:04:40;102408.81;;;12.96;61.07
33404;BME280;19751;40.274;18.268;2023-02-15T15:07:25;102410.69;;;12.95;61.97
33404;BME280;19751;40.274;18.268;2023-02-15T15:09:59;102408.28;;;13.75;61.26
33404;BME280;19751;40.274;18.268;2023-02-15T15:14:52;102409.63;;;15.76;56.75
33404;BME280;19751;40.274;18.268;2023-02-15T15:22:33;102423.47;;;15.12;55.26
33404;BME280;19751;40.274;18.268;2023-02-15T15:25:12;102423.88;;;14.61;55.06
33404;BME280;19751;40.274;18.268;2023-02-15T15:27:56;102427.19;;;14.16;54.83
33404;BME280;19751;40.274;18.268;2023-02-15T15:32:57;102426.47;;;14.30;54.91
33404;BME280;19751;40.274;18.268;2023-02-15T15:49:02;102452.06;;;12.87;57.43
33404;BME280;19751;40.274;18.268;2023-02-15T15:51:32;102458.09;;;12.73;58.11
33404;BME280;19751;40.274;18.268;2023-02-15T15:54:01;102457.34;;;12.63;59.01
33404;BME280;19751;40.274;18.268;2023-02-15T15:56:31;102457.78;;;12.50;59.73
33404;BME280;19751;40.274;18.268;2023-02-15T15:59:02;102454.50;;;12.38;60.93
33404;BME280;19751;40.274;18.268;2023-02-15T16:01:35;102463.25;;;12.32;61.75
33404;BME280;19751;40.274;18.268;2023-02-15T16:04:01;102458.66;;;12.25;62.50
33404;BME280;19751;40.274;18.268;2023-02-15T16:06:35;102467.38;;;12.18;63.95
33404;BME280;19751;40.274;18.268;2023-02-15T16:11:39;102463.09;;;12.08;65.93
33404;BME280;19751;40.274;18.268;2023-02-15T16:14:25;102471.81;;;12.02;66.73
33404;BME280;19751;40.274;18.268;2023-02-15T16:16:54;102470.03;;;11.92;67.82
33404;BME280;19751;40.274;18.268;2023-02-15T16:19:26;102466.97;;;11.87;69.02
33404;BME280;19751;40.274;18.268;2023-02-15T16:21:54;102477.91;;;11.86;69.86
33404;BME280;19751;40.274;18.268;2023-02-15T16:29:45;102471.09;;;11.82;72.49